createdAt,value
2023-04-12T00:00:35.557Z,24.07
2023-04-12T00:01:35.617Z,24.08
2023-04-12T00:02:35.872Z,24.09
2023-04-12T00:03:35.901Z,24.06
2023-04-12T00:04:35.960Z,24.08
2023-04-12T00:05:35.835Z,24.06
2023-04-12T00:06:35.846Z,24.08
2023-04-12T00:07:35.945Z,24.05
2023-04-12T00:08:36.005Z,24.04
2023-04-12T00:09:36.006Z,24.06
2023-04-12T00:10:36.093Z,24.07
2023-04-12T00:11:36.138Z,24.05
2023-04-12T00:12:36.225Z,24.05
2023-04-12T00:13:36.231Z,24.04
2023-04-12T00:14:36.327Z,24.03
2023-04-12T00:15:36.407Z,24.03
2023-04-12T00:16:36.420Z,24.01
2023-04-12T00:17:36.538Z,24.03
2023-04-12T00:18:36.556Z,24.04
2023-04-12T00:19:36.590Z,24.02
2023-04-12T00:20:36.666Z,24.01
2023-04-12T00:21:36.686Z,24.03
2023-04-12T00:22:36.777Z,24.03
2023-04-12T00:23:36.892Z,24.00
2023-04-12T00:24:36.895Z,24.02
2023-04-12T00:25:36.943Z,24.02
2023-04-12T00:26:37.016Z,23.99
2023-04-12T00:27:37.042Z,24.02
2023-04-12T00:28:37.116Z,23.99
2023-04-12T00:29:37.190Z,24.01
2023-04-12T00:30:37.230Z,24.00
2023-04-12T00:31:37.383Z,23.98
2023-04-12T00:32:37.424Z,23.99
2023-04-12T00:33:37.400Z,23.98
2023-04-12T00:34:37.467Z,24.00
2023-04-12T00:35:37.553Z,23.98
2023-04-12T00:36:37.587Z,23.98
2023-04-12T00:37:37.632Z,23.95
2023-04-12T00:38:37.724Z,23.98
2023-04-12T00:39:37.715Z,23.97
2023-04-12T00:40:37.797Z,23.98
2023-04-12T00:41:37.826Z,23.97
2023-04-12T00:42:37.885Z,23.96
2023-04-12T00:43:37.923Z,23.96
2023-04-12T00:44:37.969Z,23.96
2023-04-12T00:45:38.059Z,23.95
2023-04-12T00:46:38.132Z,23.95
2023-04-12T00:47:38.249Z,23.94
2023-04-12T00:48:38.157Z,23.93
2023-04-12T00:49:38.243Z,23.94
2023-04-12T00:50:38.266Z,23.92
2023-04-12T00:51:38.331Z,23.91
2023-04-12T00:52:38.406Z,23.93
2023-04-12T00:53:38.478Z,23.92
2023-04-12T00:54:38.499Z,23.91
2023-04-12T00:55:38.551Z,23.92
2023-04-12T00:56:38.643Z,23.92
2023-04-12T00:57:38.671Z,23.91
2023-04-12T00:58:38.801Z,23.89
2023-04-12T00:59:38.801Z,23.90
2023-04-12T01:00:38.851Z,23.89
2023-04-12T01:01:38.961Z,23.91
2023-04-12T01:02:39.177Z,23.91
2023-04-12T01:03:39.233Z,23.89
2023-04-12T01:04:39.097Z,23.90
2023-04-12T01:05:39.160Z,23.88
2023-04-12T01:06:39.245Z,23.92
2023-04-12T01:07:39.306Z,23.86
2023-04-12T01:08:39.310Z,23.90
2023-04-12T01:09:39.377Z,23.89
2023-04-12T01:10:39.415Z,23.87
2023-04-12T01:11:39.476Z,23.87
2023-04-12T01:12:39.536Z,23.87
2023-04-12T01:13:39.585Z,23.85
2023-04-12T01:14:39.656Z,23.84
2023-04-12T01:15:39.728Z,23.81
2023-04-12T01:16:39.870Z,23.84
2023-04-12T01:17:39.955Z,23.83
2023-04-12T01:18:39.941Z,23.82
2023-04-12T01:19:39.970Z,23.82
2023-04-12T01:20:40.042Z,23.83
2023-04-12T01:21:40.063Z,23.82
2023-04-12T01:22:40.173Z,23.82
2023-04-12T01:23:40.199Z,23.81
2023-04-12T01:24:40.255Z,23.79
2023-04-12T01:25:40.283Z,23.79
2023-04-12T01:26:40.366Z,23.81
2023-04-12T01:27:40.444Z,23.80
2023-04-12T01:28:40.497Z,23.79
2023-04-12T01:29:40.554Z,23.79
2023-04-12T01:30:40.578Z,23.80
2023-04-12T01:31:40.657Z,23.80
2023-04-12T01:32:40.742Z,23.78
2023-04-12T01:33:40.778Z,23.79
2023-04-12T01:34:40.831Z,23.77
2023-04-12T01:35:40.888Z,23.79
2023-04-12T01:36:40.933Z,23.80
2023-04-12T01:37:40.996Z,23.79
2023-04-12T01:38:41.077Z,23.78
2023-04-12T01:39:41.122Z,23.77
2023-04-12T01:40:41.174Z,23.78
2023-04-12T01:41:41.240Z,23.77
2023-04-12T01:42:41.354Z,23.74
2023-04-12T01:43:41.417Z,23.73
2023-04-12T01:44:41.461Z,23.76
2023-04-12T01:45:41.531Z,23.73
2023-04-12T01:46:41.570Z,23.76
2023-04-12T01:47:41.705Z,23.74
2023-04-12T01:48:41.708Z,23.74
2023-04-12T01:49:41.745Z,23.75
2023-04-12T01:50:41.827Z,23.74
2023-04-12T01:51:41.857Z,23.75
2023-04-12T01:52:41.935Z,23.75
2023-04-12T01:53:41.970Z,23.71
2023-04-12T01:54:42.002Z,23.73
2023-04-12T01:55:42.084Z,23.72
2023-04-12T01:56:42.172Z,23.73
2023-04-12T01:57:42.208Z,23.71
2023-04-12T01:58:42.285Z,23.72
2023-04-12T01:59:42.335Z,23.71
2023-04-12T02:00:42.334Z,23.70
2023-04-12T02:01:42.520Z,23.71
2023-04-12T02:02:42.583Z,23.71
2023-04-12T02:03:42.838Z,23.70
2023-04-12T02:04:42.600Z,23.71
2023-04-12T02:05:42.631Z,23.71
2023-04-12T02:06:42.720Z,23.68
2023-04-12T02:07:42.790Z,23.68
2023-04-12T02:08:42.826Z,23.72
2023-04-12T02:09:42.909Z,23.71
2023-04-12T02:10:42.885Z,23.69
2023-04-12T02:11:42.942Z,23.69
2023-04-12T02:12:43.025Z,23.68
2023-04-12T02:13:43.095Z,23.70
2023-04-12T02:14:43.123Z,23.67
2023-04-12T02:15:43.215Z,23.67
2023-04-12T02:16:43.267Z,23.67
2023-04-12T02:17:43.338Z,23.66
2023-04-12T02:18:43.372Z,23.65
2023-04-12T02:19:43.453Z,23.68
2023-04-12T02:20:43.475Z,23.66
2023-04-12T02:21:43.529Z,23.66
2023-04-12T02:22:43.564Z,23.63
2023-04-12T02:23:43.604Z,23.65
2023-04-12T02:24:43.624Z,23.64
2023-04-12T02:25:43.695Z,23.65
2023-04-12T02:26:43.749Z,23.66
2023-04-12T02:27:43.815Z,23.63
2023-04-12T02:28:43.849Z,23.64
2023-04-12T02:29:43.886Z,23.66
2023-04-12T02:30:44.009Z,23.64
2023-04-12T02:31:44.045Z,23.64
2023-04-12T02:32:44.229Z,23.64
2023-04-12T02:33:44.132Z,23.65
2023-04-12T02:34:44.179Z,23.66
2023-04-12T02:35:44.287Z,23.64
2023-04-12T02:36:44.287Z,23.64
2023-04-12T02:37:44.356Z,23.63
2023-04-12T02:38:44.390Z,23.63
2023-04-12T02:39:44.475Z,23.64
2023-04-12T02:40:44.550Z,23.63
2023-04-12T02:41:44.574Z,23.64
2023-04-12T02:42:44.687Z,23.64
2023-04-12T02:43:44.687Z,23.62
2023-04-12T02:44:44.725Z,23.63
2023-04-12T02:45:44.798Z,23.64
2023-04-12T02:46:44.856Z,23.62
2023-04-12T02:47:45.001Z,23.62
2023-04-12T02:48:44.965Z,23.63
2023-04-12T02:49:44.993Z,23.64
2023-04-12T02:50:45.092Z,23.61
2023-04-12T02:51:45.128Z,23.60
2023-04-12T02:52:45.396Z,23.64
2023-04-12T02:53:45.164Z,23.63
2023-04-12T02:54:45.253Z,23.60
2023-04-12T02:55:45.324Z,23.60
2023-04-12T02:56:45.321Z,23.60
2023-04-12T02:57:45.406Z,23.61
2023-04-12T02:58:45.468Z,23.58
2023-04-12T02:59:45.493Z,23.58
2023-04-12T03:00:45.538Z,23.60
2023-04-12T03:01:45.686Z,23.61
2023-04-12T03:02:45.753Z,23.59
2023-04-12T03:03:45.750Z,23.58
2023-04-12T03:04:45.729Z,23.59
2023-04-12T03:05:45.748Z,23.59
2023-04-12T03:06:45.791Z,23.58
2023-04-12T03:07:45.872Z,23.59
2023-04-12T03:08:45.957Z,23.59
2023-04-12T03:09:45.950Z,23.58
2023-04-12T03:10:45.998Z,23.58
2023-04-12T03:11:46.007Z,23.57
2023-04-12T03:12:46.045Z,23.58
2023-04-12T03:13:46.108Z,23.59
2023-04-12T03:14:46.202Z,23.59
2023-04-12T03:15:46.260Z,23.58
2023-04-12T03:16:46.294Z,23.58
2023-04-12T03:17:46.330Z,23.58
2023-04-12T03:18:46.439Z,23.56
2023-04-12T03:19:46.485Z,23.60
2023-04-12T03:20:47.772Z,23.56
2023-04-12T03:21:46.535Z,23.55
2023-04-12T03:22:46.601Z,23.58
2023-04-12T03:23:46.647Z,23.57
2023-04-12T03:24:46.662Z,23.57
2023-04-12T03:25:46.780Z,23.55
2023-04-12T03:26:46.803Z,23.57
2023-04-12T03:27:46.863Z,23.55
2023-04-12T03:28:46.911Z,23.55
2023-04-12T03:29:47.761Z,23.54
2023-04-12T03:30:46.977Z,23.56
2023-04-12T03:31:47.022Z,23.55
2023-04-12T03:32:47.187Z,23.55
2023-04-12T03:33:47.137Z,23.55
2023-04-12T03:34:47.181Z,23.56
2023-04-12T03:35:47.248Z,23.54
2023-04-12T03:36:47.276Z,23.55
2023-04-12T03:37:47.323Z,23.55
2023-04-12T03:38:47.328Z,23.55
2023-04-12T03:39:47.399Z,23.55
2023-04-12T03:40:47.426Z,23.55
2023-04-12T03:41:47.501Z,23.55
2023-04-12T03:42:47.549Z,23.57
2023-04-12T03:43:47.648Z,23.53
2023-04-12T03:44:47.613Z,23.56
2023-04-12T03:45:47.660Z,23.56
2023-04-12T03:46:47.753Z,23.53
2023-04-12T03:47:47.843Z,23.56
2023-04-12T03:48:47.805Z,23.53
2023-04-12T03:50:01.789Z,23.54
2023-04-12T03:50:48.834Z,23.55
2023-04-12T03:51:47.806Z,23.55
2023-04-12T03:52:47.838Z,23.55
2023-04-12T03:53:47.822Z,23.55
2023-04-12T03:54:47.843Z,23.54
2023-04-12T03:55:47.851Z,23.55
2023-04-12T03:56:47.813Z,23.55
2023-04-12T03:57:47.792Z,23.54
2023-04-12T03:58:47.826Z,23.53
2023-04-12T03:59:47.772Z,23.54
2023-04-12T04:00:47.780Z,23.52
2023-04-12T04:01:47.884Z,23.53
2023-04-12T04:02:47.956Z,23.55
2023-04-12T04:03:48.203Z,23.53
2023-04-12T04:04:48.015Z,23.51
2023-04-12T04:05:48.055Z,23.54
2023-04-12T04:06:48.100Z,23.52
2023-04-12T04:07:48.164Z,23.53
2023-04-12T04:08:48.239Z,23.53
2023-04-12T04:09:48.251Z,23.53
2023-04-12T04:10:48.307Z,23.53
2023-04-12T04:11:48.379Z,23.53
2023-04-12T04:12:48.422Z,23.53
2023-04-12T04:13:48.487Z,23.53
2023-04-12T04:14:48.511Z,23.55
2023-04-12T04:15:48.567Z,23.53
2023-04-12T04:16:48.670Z,23.52
2023-04-12T04:17:48.699Z,23.53
2023-04-12T04:18:48.699Z,23.53
2023-04-12T04:19:48.732Z,23.50
2023-04-12T04:20:48.789Z,23.54
2023-04-12T04:21:48.893Z,23.53
2023-04-12T04:22:48.924Z,23.55
2023-04-12T04:23:48.953Z,23.53
2023-04-12T04:24:49.071Z,23.53
2023-04-12T04:25:49.121Z,23.54
2023-04-12T04:26:49.139Z,23.56
2023-04-12T04:27:49.231Z,23.56
2023-04-12T04:28:49.238Z,23.54
2023-04-12T04:29:49.285Z,23.53
2023-04-12T04:30:49.306Z,23.55
2023-04-12T04:31:49.437Z,23.57
2023-04-12T04:32:49.419Z,23.55
2023-04-12T04:33:49.450Z,23.55
2023-04-12T04:34:49.512Z,23.54
2023-04-12T04:35:49.645Z,23.54
2023-04-12T04:36:49.624Z,23.56
2023-04-12T04:37:49.715Z,23.55
2023-04-12T04:38:49.752Z,23.55
2023-04-12T04:39:49.788Z,23.54
2023-04-12T04:40:49.832Z,23.54
2023-04-12T04:41:49.862Z,23.54
2023-04-12T04:42:49.938Z,23.55
2023-04-12T04:43:50.025Z,23.54
2023-04-12T04:44:50.069Z,23.54
2023-04-12T04:45:50.253Z,23.53
2023-04-12T04:46:50.157Z,23.55
2023-04-12T04:47:50.284Z,23.51
2023-04-12T04:48:50.293Z,23.52
2023-04-12T04:49:50.325Z,23.54
2023-04-12T04:50:50.390Z,23.51
2023-04-12T04:51:50.435Z,23.50
2023-04-12T04:52:50.493Z,23.51
2023-04-12T04:53:50.555Z,23.52
2023-04-12T04:54:50.630Z,23.51
2023-04-12T04:55:50.659Z,23.50
2023-04-12T04:56:50.687Z,23.50
2023-04-12T04:57:50.775Z,23.48
2023-04-12T04:58:50.813Z,23.47
2023-04-12T04:59:50.865Z,23.47
2023-04-12T05:00:57.948Z,23.49
2023-04-12T05:01:51.034Z,23.48
2023-04-12T05:02:51.033Z,23.46
2023-04-12T05:03:51.039Z,23.47
2023-04-12T05:04:50.923Z,23.47
2023-04-12T05:05:50.909Z,23.45
2023-04-12T05:06:50.936Z,23.45
2023-04-12T05:07:50.917Z,23.45
2023-04-12T05:08:50.939Z,23.45
2023-04-12T05:09:50.910Z,23.43
2023-04-12T05:10:50.904Z,23.43
2023-04-12T05:11:50.923Z,23.43
2023-04-12T05:12:50.913Z,23.42
2023-04-12T05:13:50.935Z,23.43
2023-04-12T05:14:51.894Z,23.40
2023-04-12T05:15:50.962Z,23.42
2023-04-12T05:16:51.008Z,23.40
2023-04-12T05:17:50.886Z,23.44
2023-04-12T05:18:50.923Z,23.43
2023-04-12T05:19:50.870Z,23.41
2023-04-12T05:20:50.900Z,23.42
2023-04-12T05:21:50.890Z,23.43
2023-04-12T05:22:50.882Z,23.42
2023-04-12T05:23:50.921Z,23.42
2023-04-12T05:24:50.863Z,23.40
2023-04-12T05:25:50.863Z,23.40
2023-04-12T05:26:50.853Z,23.41
2023-04-12T05:27:52.209Z,23.42
2023-04-12T05:28:50.853Z,23.42
2023-04-12T05:29:50.899Z,23.40
2023-04-12T05:30:51.005Z,23.42
2023-04-12T05:31:51.045Z,23.41
2023-04-12T05:32:51.108Z,23.42
2023-04-12T05:33:51.326Z,23.43
2023-04-12T05:34:51.192Z,24.02
2023-04-12T05:35:51.250Z,24.21
2023-04-12T05:36:51.256Z,24.93
2023-04-12T05:37:51.314Z,25.09
2023-04-12T05:38:51.848Z,25.17
2023-04-12T05:39:51.423Z,25.31
2023-04-12T05:40:51.556Z,25.35
2023-04-12T05:41:51.561Z,25.52
2023-04-12T05:42:51.545Z,25.76
2023-04-12T05:43:51.832Z,26.06
2023-04-12T05:44:51.613Z,26.42
2023-04-12T05:45:58.673Z,26.64
2023-04-12T05:46:51.700Z,26.36
2023-04-12T05:47:51.734Z,26.23
2023-04-12T05:48:51.913Z,26.28
2023-04-12T05:49:51.754Z,26.14
2023-04-12T05:50:51.753Z,25.70
2023-04-12T05:51:51.736Z,25.61
2023-04-12T05:52:51.720Z,25.83
2023-04-12T05:53:51.703Z,25.41
2023-04-12T05:54:51.868Z,25.26
2023-04-12T05:55:51.772Z,25.09
2023-04-12T05:56:51.729Z,24.98
2023-04-12T05:57:51.714Z,24.88
2023-04-12T05:58:51.759Z,25.01
2023-04-12T05:59:51.769Z,24.90
2023-04-12T06:00:51.763Z,24.76
2023-04-12T06:01:51.789Z,24.95
2023-04-12T06:02:52.510Z,24.71
2023-04-12T06:03:51.948Z,24.68
2023-04-12T06:04:52.110Z,24.67
2023-04-12T06:05:51.781Z,24.76
2023-04-12T06:06:51.851Z,24.71
2023-04-12T06:07:51.743Z,24.78
2023-04-12T06:08:51.834Z,24.72
2023-04-12T06:09:51.853Z,24.67
2023-04-12T06:10:51.781Z,24.68
2023-04-12T06:11:51.820Z,24.59
2023-04-12T06:12:51.777Z,24.63
2023-04-12T06:13:51.802Z,24.61
2023-04-12T06:14:51.817Z,24.62
2023-04-12T06:15:51.932Z,24.62
2023-04-12T06:16:51.801Z,24.66
2023-04-12T06:17:51.875Z,24.70
2023-04-12T06:18:51.814Z,24.82
2023-04-12T06:19:51.806Z,24.81
2023-04-12T06:20:51.829Z,24.75
2023-04-12T06:21:51.896Z,24.73
2023-04-12T06:22:51.864Z,24.65
2023-04-12T06:23:51.866Z,24.71
2023-04-12T06:24:51.849Z,24.76
2023-04-12T06:25:51.871Z,24.75
2023-04-12T06:26:51.893Z,24.64
2023-04-12T06:27:52.864Z,24.64
2023-04-12T06:28:52.116Z,24.68
2023-04-12T06:29:52.599Z,24.80
2023-04-12T06:30:52.526Z,24.87
2023-04-12T06:31:52.464Z,24.79
2023-04-12T06:32:52.178Z,24.76
2023-04-12T06:33:51.944Z,24.73
2023-04-12T06:34:51.985Z,24.68
2023-04-12T06:35:51.959Z,24.71
2023-04-12T06:36:52.022Z,24.76
2023-04-12T06:37:52.003Z,25.63
2023-04-12T06:38:52.023Z,26.38
2023-04-12T06:39:52.539Z,26.57
2023-04-12T06:40:51.984Z,27.13
2023-04-12T06:41:52.036Z,27.02
2023-04-12T06:42:52.094Z,27.22
2023-04-12T06:43:52.094Z,27.12
2023-04-12T06:44:52.161Z,27.31
2023-04-12T06:45:52.160Z,27.08
2023-04-12T06:46:52.191Z,27.10
2023-04-12T06:47:52.200Z,26.73
2023-04-12T06:48:52.379Z,26.29
2023-04-12T06:49:54.126Z,26.41
2023-04-12T06:50:52.302Z,26.48
2023-04-12T06:51:52.259Z,26.09
2023-04-12T06:52:52.273Z,26.58
2023-04-12T06:53:52.277Z,26.68
2023-04-12T06:54:52.339Z,27.28
2023-04-12T06:55:52.323Z,28.00
2023-04-12T06:56:52.343Z,28.39
2023-04-12T06:57:52.356Z,28.23
2023-04-12T06:58:52.350Z,28.33
2023-04-12T06:59:52.369Z,28.25
2023-04-12T07:00:52.400Z,28.40
2023-04-12T07:01:52.423Z,28.74
2023-04-12T07:02:52.808Z,28.45
2023-04-12T07:03:52.557Z,28.53
2023-04-12T07:04:52.428Z,28.57
2023-04-12T07:05:52.426Z,28.46
2023-04-12T07:06:52.461Z,28.55
2023-04-12T07:07:52.474Z,28.48
2023-04-12T07:08:52.494Z,28.55
2023-04-12T07:09:52.561Z,28.44
2023-04-12T07:10:52.547Z,28.76
2023-04-12T07:11:52.550Z,28.49
2023-04-12T07:12:52.489Z,28.62
2023-04-12T07:13:52.504Z,28.70
2023-04-12T07:14:52.576Z,28.67
2023-04-12T07:15:52.556Z,28.64
2023-04-12T07:16:52.743Z,28.48
2023-04-12T07:17:52.634Z,28.33
2023-04-12T07:18:52.604Z,28.43
2023-04-12T07:19:52.596Z,28.33
2023-04-12T07:20:52.628Z,28.28
2023-04-12T07:21:52.585Z,28.33
2023-04-12T07:22:52.586Z,28.19
2023-04-12T07:23:52.642Z,28.20
2023-04-12T07:24:52.651Z,28.26
2023-04-12T07:25:52.659Z,28.05
2023-04-12T07:26:52.664Z,28.13
2023-04-12T07:27:52.654Z,28.06
2023-04-12T07:28:52.677Z,28.04
2023-04-12T07:29:52.696Z,28.15
2023-04-12T07:30:52.707Z,28.13
2023-04-12T07:31:52.676Z,28.56
2023-04-12T07:32:52.733Z,28.78
2023-04-12T07:33:52.862Z,28.93
2023-04-12T07:34:52.843Z,28.71
2023-04-12T07:35:52.805Z,28.84
2023-04-12T07:36:52.732Z,28.85
2023-04-12T07:37:52.904Z,28.87
2023-04-12T07:38:52.746Z,28.88
2023-04-12T07:39:52.771Z,29.14
2023-04-12T07:40:52.714Z,29.28
2023-04-12T07:41:52.790Z,29.20
2023-04-12T07:42:52.728Z,29.09
2023-04-12T07:43:52.697Z,29.04
2023-04-12T07:44:52.742Z,29.16
2023-04-12T07:45:52.763Z,29.33
2023-04-12T07:46:52.733Z,29.35
2023-04-12T07:47:52.849Z,29.52
2023-04-12T07:48:52.759Z,29.87
2023-04-12T07:49:52.861Z,29.78
2023-04-12T07:50:52.717Z,30.02
2023-04-12T07:51:52.825Z,28.83
2023-04-12T07:52:52.726Z,28.08
2023-04-12T07:53:52.752Z,27.73
2023-04-12T07:54:52.759Z,27.35
2023-04-12T07:55:52.760Z,27.47
2023-04-12T07:56:52.820Z,27.30
2023-04-12T07:57:52.857Z,27.31
2023-04-12T07:58:52.924Z,27.13
2023-04-12T07:59:53.359Z,26.97
2023-04-12T08:00:52.962Z,26.95
2023-04-12T08:01:52.970Z,26.90
2023-04-12T08:02:53.094Z,26.91
2023-04-12T08:03:53.238Z,27.00
2023-04-12T08:04:53.127Z,27.37
2023-04-12T08:05:53.317Z,27.46
2023-04-12T08:06:53.241Z,27.60
2023-04-12T08:07:53.248Z,27.59
2023-04-12T08:08:53.295Z,27.53
2023-04-12T08:09:53.376Z,27.52
2023-04-12T08:10:53.341Z,27.74
2023-04-12T08:11:53.377Z,27.64
2023-04-12T08:12:53.502Z,27.67
2023-04-12T08:13:53.500Z,27.69
2023-04-12T08:14:53.479Z,27.59
2023-04-12T08:15:53.594Z,27.57
2023-04-12T08:16:53.555Z,27.55
2023-04-12T08:17:53.618Z,27.76
2023-04-12T08:18:53.643Z,27.81
2023-04-12T08:19:53.673Z,27.72
2023-04-12T08:20:53.673Z,27.89
2023-04-12T08:21:53.713Z,27.72
2023-04-12T08:22:53.759Z,27.85
2023-04-12T08:23:53.820Z,28.01
2023-04-12T08:24:53.874Z,27.94
2023-04-12T08:25:53.874Z,27.96
2023-04-12T08:26:53.881Z,27.93
2023-04-12T08:27:53.954Z,27.93
2023-04-12T08:28:54.014Z,27.77
2023-04-12T08:29:54.412Z,27.81
2023-04-12T08:30:54.081Z,27.80
2023-04-12T08:31:54.079Z,27.96
2023-04-12T08:32:54.210Z,28.02
2023-04-12T08:33:54.150Z,27.43
2023-04-12T08:34:54.222Z,27.64
2023-04-12T08:35:54.465Z,27.75
2023-04-12T08:36:54.224Z,28.00
2023-04-12T08:37:54.280Z,28.03
2023-04-12T08:38:54.285Z,28.14
2023-04-12T08:39:54.314Z,28.31
2023-04-12T08:40:54.323Z,27.96
2023-04-12T08:41:54.467Z,28.25
2023-04-12T08:42:56.013Z,28.60
2023-04-12T08:43:54.413Z,28.57
2023-04-12T08:44:54.852Z,28.71
2023-04-12T08:45:54.493Z,28.58
2023-04-12T08:46:54.612Z,28.19
2023-04-12T08:47:54.619Z,27.83
2023-04-12T08:48:54.599Z,28.24
2023-04-12T08:49:54.661Z,28.39
2023-04-12T08:50:54.726Z,28.58
2023-04-12T08:51:54.739Z,28.79
2023-04-12T08:52:54.834Z,28.85
2023-04-12T08:53:54.832Z,28.78
2023-04-12T08:54:54.882Z,28.74
2023-04-12T08:55:54.958Z,28.73
2023-04-12T08:56:55.020Z,28.81
2023-04-12T08:57:54.997Z,28.81
2023-04-12T08:58:55.066Z,28.79
2023-04-12T08:59:55.138Z,28.82
2023-04-12T09:00:55.401Z,28.84
2023-04-12T09:01:55.344Z,28.84
2023-04-12T09:02:55.395Z,28.98
2023-04-12T09:03:55.742Z,28.91
2023-04-12T09:04:55.460Z,28.94
2023-04-12T09:05:55.413Z,28.93
2023-04-12T09:06:55.441Z,28.93
2023-04-12T09:07:55.499Z,28.92
2023-04-12T09:08:55.516Z,28.96
2023-04-12T09:09:55.521Z,28.92
2023-04-12T09:10:55.943Z,28.94
2023-04-12T09:11:55.578Z,28.94
2023-04-12T09:12:55.593Z,28.98
2023-04-12T09:13:55.795Z,28.98
2023-04-12T09:14:55.649Z,29.00
2023-04-12T09:15:55.675Z,29.01
2023-04-12T09:16:55.730Z,29.02
2023-04-12T09:17:55.777Z,29.03
2023-04-12T09:18:55.966Z,29.07
2023-04-12T09:19:55.799Z,29.12
2023-04-12T09:20:55.826Z,29.07
2023-04-12T09:21:55.852Z,29.15
2023-04-12T09:22:55.873Z,29.15
2023-04-12T09:23:56.080Z,29.20
2023-04-12T09:24:55.856Z,29.25
2023-04-12T09:25:56.446Z,29.25
2023-04-12T09:26:55.910Z,29.27
2023-04-12T09:27:55.950Z,29.22
2023-04-12T09:28:55.910Z,29.25
2023-04-12T09:29:56.301Z,29.30
2023-04-12T09:30:55.996Z,29.31
2023-04-12T09:31:56.032Z,29.31
2023-04-12T09:32:56.015Z,29.33
2023-04-12T09:33:56.168Z,29.37
2023-04-12T09:34:56.013Z,29.39
2023-04-12T09:35:56.028Z,29.38
2023-04-12T09:36:56.082Z,29.42
2023-04-12T09:37:56.077Z,29.55
2023-04-12T09:38:56.049Z,29.39
2023-04-12T09:39:56.068Z,29.44
2023-04-12T09:40:56.450Z,29.37
2023-04-12T09:41:56.095Z,29.41
2023-04-12T09:42:56.112Z,29.41
2023-04-12T09:43:56.688Z,28.48
2023-04-12T09:44:56.127Z,28.33
2023-04-12T09:45:56.087Z,28.41
2023-04-12T09:46:56.281Z,28.20
2023-04-12T09:47:56.139Z,28.19
2023-04-12T09:48:56.160Z,28.52
2023-04-12T09:49:56.139Z,28.37
2023-04-12T09:50:56.153Z,28.47
2023-04-12T09:51:57.593Z,28.27
2023-04-12T09:52:56.265Z,28.55
2023-04-12T09:53:56.447Z,28.49
2023-04-12T09:54:56.196Z,28.25
2023-04-12T09:55:56.265Z,28.17
2023-04-12T09:56:56.362Z,28.37
2023-04-12T09:57:56.188Z,27.75
2023-04-12T09:58:56.446Z,27.62
2023-04-12T09:59:56.288Z,27.38
2023-04-12T10:00:56.179Z,27.46
2023-04-12T10:01:56.341Z,27.40
2023-04-12T10:02:56.508Z,27.33
2023-04-12T10:03:56.402Z,26.78
2023-04-12T10:04:56.199Z,27.12
2023-04-12T10:05:57.468Z,26.58
2023-04-12T10:06:56.493Z,26.57
2023-04-12T10:07:56.076Z,26.38
2023-04-12T10:08:56.299Z,26.36
2023-04-12T10:09:56.045Z,25.68
2023-04-12T10:10:56.046Z,26.09
2023-04-12T10:11:55.981Z,26.07
2023-04-12T10:12:56.007Z,25.82
2023-04-12T10:13:56.179Z,25.74
2023-04-12T10:14:55.986Z,25.94
2023-04-12T10:15:56.029Z,25.82
2023-04-12T10:16:55.989Z,25.79
2023-04-12T10:17:56.033Z,25.72
2023-04-12T10:18:56.285Z,25.55
2023-04-12T10:19:55.960Z,25.60
2023-04-12T10:20:56.504Z,25.69
2023-04-12T10:21:55.929Z,25.70
2023-04-12T10:22:55.928Z,25.69
2023-04-12T10:23:55.931Z,25.66
2023-04-12T10:24:55.912Z,25.58
2023-04-12T10:25:55.936Z,25.55
2023-04-12T10:26:56.021Z,25.55
2023-04-12T10:27:56.943Z,25.64
2023-04-12T10:28:56.265Z,25.74
2023-04-12T10:29:56.109Z,25.74
2023-04-12T10:30:56.480Z,25.77
2023-04-12T10:31:56.278Z,25.82
2023-04-12T10:32:56.342Z,25.85
2023-04-12T10:33:56.286Z,25.83
2023-04-12T10:34:56.439Z,25.84
2023-04-12T10:35:56.641Z,25.83
2023-04-12T10:36:56.427Z,25.74
2023-04-12T10:37:56.459Z,25.75
2023-04-12T10:38:56.959Z,25.79
2023-04-12T10:39:56.553Z,25.72
2023-04-12T10:40:56.968Z,25.74
2023-04-12T10:41:56.680Z,25.76
2023-04-12T10:42:56.724Z,25.71
2023-04-12T10:43:56.806Z,25.72
2023-04-12T10:44:58.635Z,25.71
2023-04-12T10:45:56.806Z,25.75
2023-04-12T10:46:56.822Z,25.75
2023-04-12T10:47:57.020Z,25.77
2023-04-12T10:48:57.100Z,25.74
2023-04-12T10:49:56.832Z,25.76
2023-04-12T10:50:56.878Z,25.74
2023-04-12T10:51:56.836Z,25.75
2023-04-12T10:52:56.808Z,25.77
2023-04-12T10:53:56.805Z,25.79
2023-04-12T10:54:56.808Z,25.80
2023-04-12T10:55:56.840Z,25.82
2023-04-12T10:56:57.434Z,25.82
2023-04-12T10:57:56.807Z,25.83
2023-04-12T10:58:57.213Z,26.01
2023-04-12T10:59:57.039Z,26.04
2023-04-12T11:00:56.980Z,26.18
2023-04-12T11:01:56.930Z,26.07
2023-04-12T11:02:57.066Z,26.07
2023-04-12T11:03:57.154Z,26.02
2023-04-12T11:04:56.981Z,26.30
2023-04-12T11:05:56.880Z,26.12
2023-04-12T11:06:59.188Z,26.31
2023-04-12T11:07:56.886Z,26.16
2023-04-12T11:08:57.269Z,26.17
2023-04-12T11:09:56.920Z,26.27
2023-04-12T11:10:57.019Z,26.13
2023-04-12T11:11:56.976Z,26.08
2023-04-12T11:12:56.949Z,25.90
2023-04-12T11:13:56.990Z,25.97
2023-04-12T11:14:56.987Z,26.04
2023-04-12T11:15:57.472Z,26.56
2023-04-12T11:16:57.039Z,26.13
2023-04-12T11:17:57.132Z,26.06
2023-04-12T11:18:57.248Z,26.03
2023-04-12T11:19:57.025Z,26.83
2023-04-12T11:20:57.033Z,27.47
2023-04-12T11:21:57.456Z,27.65
2023-04-12T11:22:57.091Z,27.65
2023-04-12T11:23:57.050Z,27.76
2023-04-12T11:24:57.014Z,27.83
2023-04-12T11:25:57.072Z,28.25
2023-04-12T11:26:57.428Z,28.15
2023-04-12T11:27:57.082Z,27.98
2023-04-12T11:28:57.320Z,28.07
2023-04-12T11:29:57.092Z,28.05
2023-04-12T11:30:57.836Z,28.21
2023-04-12T11:31:57.545Z,28.14
2023-04-12T11:32:57.180Z,28.02
2023-04-12T11:33:57.144Z,27.93
2023-04-12T11:34:57.149Z,27.89
2023-04-12T11:35:57.136Z,27.82
2023-04-12T11:36:57.447Z,27.77
2023-04-12T11:37:57.087Z,27.73
2023-04-12T11:38:57.352Z,27.69
2023-04-12T11:39:57.109Z,27.68
2023-04-12T11:41:51.019Z,27.63
2023-04-12T11:42:51.001Z,27.58
2023-04-12T11:43:51.053Z,27.56
2023-04-12T11:44:56.089Z,27.53
2023-04-12T11:45:52.105Z,27.48
2023-04-12T11:46:51.155Z,27.46
2023-04-12T11:47:51.154Z,27.40
2023-04-12T11:48:51.116Z,27.36
2023-04-12T11:49:51.142Z,27.36
2023-04-12T11:50:59.936Z,27.30
2023-04-12T11:51:52.170Z,27.25
2023-04-12T11:52:51.226Z,27.25
2023-04-12T11:53:51.195Z,27.19
2023-04-12T11:54:51.234Z,27.19
2023-04-12T11:55:51.242Z,27.19
2023-04-12T11:56:51.250Z,27.15
2023-04-12T11:57:51.258Z,27.15
2023-04-12T11:58:51.265Z,27.13
2023-04-12T11:59:51.315Z,27.11
2023-04-12T12:00:51.309Z,27.12
2023-04-12T12:01:51.423Z,27.06
2023-04-12T12:03:06.659Z,27.08
2023-04-12T12:03:52.551Z,27.06
2023-04-12T12:04:51.916Z,27.07
2023-04-12T12:05:51.577Z,27.14
2023-04-12T12:06:52.375Z,27.08
2023-04-12T12:07:51.474Z,27.04
2023-04-12T12:08:51.454Z,27.05
2023-04-12T12:09:51.457Z,27.00
2023-04-12T12:11:51.501Z,26.93
2023-04-12T12:12:51.552Z,26.93
2023-04-12T12:13:51.541Z,26.91
2023-04-12T12:14:51.548Z,26.88
2023-04-12T12:15:51.568Z,26.90
2023-04-12T12:16:51.563Z,26.89
2023-04-12T12:17:51.639Z,26.87
2023-04-12T12:18:52.908Z,26.90
2023-04-12T12:19:51.633Z,26.88
2023-04-12T12:20:51.641Z,26.85
2023-04-12T12:21:51.629Z,26.80
2023-04-12T12:22:51.668Z,26.79
2023-04-12T12:23:51.709Z,26.76
2023-04-12T12:24:51.769Z,26.77
2023-04-12T12:25:57.836Z,26.79
2023-04-12T12:26:52.782Z,26.77
2023-04-12T12:27:51.836Z,26.75
2023-04-12T12:28:51.852Z,26.72
2023-04-12T12:29:51.889Z,26.70
2023-04-12T12:30:51.892Z,26.72
2023-04-12T12:31:52.250Z,26.71
2023-04-12T12:32:51.893Z,26.72
2023-04-12T12:33:51.886Z,26.70
2023-04-12T12:34:51.891Z,26.69
2023-04-12T12:35:51.913Z,26.71
2023-04-12T12:36:51.949Z,26.68
2023-04-12T12:37:51.946Z,26.65
2023-04-12T12:38:51.887Z,26.70
2023-04-12T12:39:51.956Z,26.66
2023-04-12T12:40:51.932Z,26.66
2023-04-12T12:41:51.967Z,26.65
2023-04-12T12:42:51.982Z,26.65
2023-04-12T12:43:51.998Z,26.64
2023-04-12T12:44:52.014Z,26.65
2023-04-12T12:45:52.077Z,26.73
2023-04-12T12:46:56.868Z,26.63
2023-04-12T12:47:53.355Z,26.64
2023-04-12T12:48:52.125Z,26.62
2023-04-12T12:49:52.167Z,26.59
2023-04-12T12:50:52.152Z,26.59
2023-04-12T12:51:52.233Z,26.55
2023-04-12T12:52:52.185Z,26.57
2023-04-12T12:53:52.208Z,26.89
2023-04-12T12:54:52.210Z,26.70